createdAt,value
2022-08-22T00:00:11.831Z,56.00
2022-08-22T00:02:40.426Z,55.70
2022-08-22T00:02:45.720Z,51.00
2022-08-22T00:02:59.525Z,50.80
2022-08-22T00:03:09.032Z,51.60
2022-08-22T00:03:09.333Z,56.20
2022-08-22T00:05:37.413Z,55.80
2022-08-22T00:08:27.600Z,56.10
2022-08-22T00:10:59.438Z,56.40
2022-08-22T00:13:33.962Z,56.00
2022-08-22T00:16:28.964Z,55.50
2022-08-22T00:19:34.510Z,55.30
2022-08-22T00:22:01.353Z,56.20
2022-08-22T00:24:48.171Z,56.30
2022-08-22T00:27:27.167Z,56.10
2022-08-22T00:30:11.983Z,55.90
2022-08-22T00:33:05.255Z,56.10
2022-08-22T00:35:45.336Z,56.20
2022-08-22T00:38:36.230Z,56.30
2022-08-22T00:41:24.422Z,56.50
2022-08-22T00:44:11.724Z,56.20
2022-08-22T00:47:10.839Z,56.80
2022-08-22T00:49:40.505Z,58.00
2022-08-22T00:52:32.175Z,56.90
2022-08-22T00:55:06.937Z,56.90
2022-08-22T00:57:36.520Z,56.40
2022-08-22T01:00:21.818Z,56.10
2022-08-22T01:03:07.502Z,57.20
2022-08-22T01:06:24.607Z,56.30
2022-08-22T01:09:36.639Z,56.20
2022-08-22T01:13:08.141Z,56.60
2022-08-22T01:15:37.650Z,56.50
2022-08-22T01:18:16.347Z,56.50
2022-08-22T01:21:20.130Z,57.40
2022-08-22T01:24:09.459Z,57.60
2022-08-22T01:27:23.704Z,57.50
2022-08-22T01:30:03.431Z,57.40
2022-08-22T01:32:31.569Z,57.20
2022-08-22T01:35:09.805Z,57.50
2022-08-22T01:38:14.350Z,57.50
2022-08-22T01:40:59.016Z,56.80
2022-08-22T01:44:03.422Z,56.60
2022-08-22T01:46:51.552Z,56.80
2022-08-22T01:49:28.114Z,57.20
2022-08-22T01:52:34.811Z,57.50
2022-08-22T01:55:41.288Z,57.70
2022-08-22T01:58:23.572Z,58.20
2022-08-22T02:01:10.796Z,58.60
2022-08-22T02:04:01.909Z,59.30
2022-08-22T02:07:00.481Z,58.80
2022-08-22T02:10:03.398Z,58.80
2022-08-22T02:13:02.498Z,58.60
2022-08-22T02:15:41.676Z,59.10
2022-08-22T02:18:25.990Z,58.30
2022-08-22T02:21:24.254Z,59.00
2022-08-22T02:23:57.894Z,58.90
2022-08-22T02:26:27.601Z,58.70
2022-08-22T02:29:01.306Z,58.70
2022-08-22T02:32:05.742Z,58.60
2022-08-22T02:34:53.169Z,58.70
2022-08-22T02:37:31.975Z,58.60
2022-08-22T02:40:09.651Z,58.80
2022-08-22T02:42:43.206Z,58.80
2022-08-22T02:45:16.084Z,59.00
2022-08-22T02:47:57.314Z,58.60
2022-08-22T02:50:35.952Z,58.40
2022-08-22T02:53:17.320Z,58.40
2022-08-22T02:56:12.491Z,58.20
2022-08-22T02:58:45.594Z,58.30
2022-08-22T03:01:28.174Z,58.70
2022-08-22T03:04:32.149Z,58.60
2022-08-22T03:07:01.770Z,58.70
2022-08-22T03:09:41.757Z,58.60
2022-08-22T03:12:21.142Z,58.50
2022-08-22T03:14:54.526Z,58.30
2022-08-22T03:17:49.469Z,58.50
2022-08-22T03:20:42.526Z,58.80
2022-08-22T03:23:39.066Z,58.60
2022-08-22T03:26:18.984Z,58.60
2022-08-22T03:28:59.191Z,58.70
2022-08-22T03:31:28.693Z,58.50
2022-08-22T03:34:17.201Z,58.40
2022-08-22T03:37:02.144Z,58.00
2022-08-22T03:39:56.307Z,58.60
2022-08-22T03:42:53.121Z,58.50
2022-08-22T03:45:54.764Z,58.10
2022-08-22T03:48:27.711Z,58.00
2022-08-22T03:51:08.293Z,58.10
2022-08-22T03:54:12.457Z,58.50
2022-08-22T03:56:58.946Z,58.40
2022-08-22T03:59:34.412Z,58.60
2022-08-22T04:02:42.781Z,58.70
2022-08-22T04:05:58.383Z,59.00
2022-08-22T04:08:57.737Z,59.40
2022-08-22T04:11:46.255Z,59.30
2022-08-22T04:14:44.048Z,59.40
2022-08-22T04:17:17.027Z,59.40
2022-08-22T04:20:04.979Z,59.40
2022-08-22T04:23:26.799Z,59.30
2022-08-22T04:25:58.607Z,59.30
2022-08-22T04:28:34.611Z,59.40
2022-08-22T04:31:04.296Z,59.30
2022-08-22T04:33:40.875Z,59.10
2022-08-22T04:36:21.332Z,59.00
2022-08-22T04:38:56.258Z,59.20
2022-08-22T04:41:41.302Z,59.00
2022-08-22T04:44:27.165Z,59.00
2022-08-22T04:47:05.971Z,59.20
2022-08-22T04:49:38.377Z,59.40
2022-08-22T04:52:10.265Z,59.40
2022-08-22T04:55:02.175Z,59.30
2022-08-22T04:58:06.547Z,59.20
2022-08-22T05:00:42.483Z,59.40
2022-08-22T05:03:14.971Z,59.30
2022-08-22T05:05:45.020Z,59.50
2022-08-22T05:08:18.632Z,59.10
2022-08-22T05:10:49.061Z,59.30
2022-08-22T05:13:23.951Z,59.70
2022-08-22T05:15:56.962Z,59.90
2022-08-22T05:18:32.207Z,59.70
2022-08-22T05:21:01.887Z,59.40
2022-08-22T05:23:44.433Z,59.60
2022-08-22T05:26:13.456Z,59.70
2022-08-22T05:28:53.315Z,59.60
2022-08-22T05:31:34.654Z,59.50
2022-08-22T05:34:11.360Z,59.70
2022-08-22T05:36:46.635Z,59.40
2022-08-22T05:39:27.844Z,59.70
2022-08-22T05:41:56.895Z,60.00
2022-08-22T05:44:28.200Z,59.90
2022-08-22T05:47:10.210Z,60.00
2022-08-22T05:49:40.124Z,59.70
2022-08-22T05:52:19.594Z,59.40
2022-08-22T05:54:56.136Z,59.20
2022-08-22T05:57:31.189Z,59.40
2022-08-22T06:00:13.127Z,59.70
2022-08-22T06:03:10.653Z,60.50
2022-08-22T06:05:42.890Z,60.60
2022-08-22T06:08:25.012Z,60.50
2022-08-22T06:10:56.266Z,60.20
2022-08-22T06:13:44.244Z,59.60
2022-08-22T06:16:21.505Z,60.10
2022-08-22T06:18:51.237Z,59.90
2022-08-22T06:21:25.995Z,59.70
2022-08-22T06:23:57.480Z,59.60
2022-08-22T06:26:38.305Z,59.50
2022-08-22T06:29:08.554Z,59.30
2022-08-22T06:31:49.054Z,58.70
2022-08-22T06:34:23.564Z,59.10
2022-08-22T06:36:53.489Z,58.70
2022-08-22T06:39:27.939Z,58.90
2022-08-22T06:42:01.460Z,58.90
2022-08-22T06:44:51.715Z,58.20
2022-08-22T06:47:23.563Z,57.30
2022-08-22T06:49:57.289Z,55.60
2022-08-22T06:52:28.314Z,54.90
2022-08-22T06:55:01.658Z,54.40
2022-08-22T06:57:52.007Z,54.10
2022-08-22T07:00:19.470Z,54.80
2022-08-22T07:02:59.598Z,54.90
2022-08-22T07:05:29.669Z,53.90
2022-08-22T07:07:57.268Z,53.00
2022-08-22T07:10:25.065Z,52.60
2022-08-22T07:12:56.625Z,52.40
2022-08-22T07:15:35.360Z,51.70
2022-08-22T07:18:09.786Z,51.80
2022-08-22T07:20:45.140Z,51.80
2022-08-22T07:23:46.008Z,52.60
2022-08-22T07:26:27.772Z,53.30
2022-08-22T07:29:13.247Z,54.40
2022-08-22T07:31:58.828Z,54.90
2022-08-22T07:34:38.101Z,54.40
2022-08-22T07:37:31.989Z,54.30
2022-08-22T07:40:25.036Z,55.20
2022-08-22T07:43:24.962Z,55.30
2022-08-22T07:45:57.191Z,55.70
2022-08-22T07:48:28.613Z,56.00
2022-08-22T07:51:07.938Z,54.90
2022-08-22T07:53:42.255Z,55.50
2022-08-22T07:56:16.560Z,55.40
2022-08-22T07:58:46.010Z,54.50
2022-08-22T08:01:17.917Z,52.90
2022-08-22T08:03:53.139Z,51.60
2022-08-22T08:06:23.378Z,51.10
2022-08-22T08:08:51.686Z,51.10
2022-08-22T08:11:21.449Z,50.20
2022-08-22T08:13:52.967Z,48.90
2022-08-22T08:16:24.819Z,48.90
2022-08-22T08:18:56.660Z,47.60
2022-08-22T08:21:33.482Z,47.60
2022-08-22T08:24:01.722Z,46.10
2022-08-22T08:26:38.782Z,45.80
2022-08-22T08:29:07.272Z,44.40
2022-08-22T08:31:43.366Z,43.60
2022-08-22T08:34:19.946Z,43.30
2022-08-22T08:36:57.639Z,43.20
2022-08-22T08:39:35.021Z,43.70
2022-08-22T08:42:59.240Z,42.60
2022-08-22T08:45:59.412Z,42.10
2022-08-22T08:48:51.664Z,42.90
2022-08-22T08:51:37.906Z,41.00
2022-08-22T08:54:26.306Z,42.00
2022-08-22T08:57:14.918Z,41.00
2022-08-22T09:00:01.766Z,40.60
2022-08-22T09:02:40.501Z,40.50
2022-08-22T09:05:19.587Z,39.40
2022-08-22T09:08:43.085Z,38.20
2022-08-22T09:11:31.090Z,37.30
2022-08-22T09:14:12.396Z,38.60
2022-08-22T09:17:31.298Z,38.80
2022-08-22T09:20:17.665Z,39.10
2022-08-22T09:23:22.792Z,40.00
2022-08-22T09:25:59.627Z,40.20
2022-08-22T09:28:31.298Z,38.10
2022-08-22T09:31:16.524Z,35.80
2022-08-22T09:33:46.859Z,35.70
2022-08-22T09:36:30.754Z,35.90
2022-08-22T09:39:13.958Z,36.30
2022-08-22T09:42:08.158Z,37.20
2022-08-22T09:44:39.726Z,35.50
2022-08-22T09:47:12.293Z,36.30
2022-08-22T09:49:55.819Z,37.30
2022-08-22T09:52:57.934Z,35.80
2022-08-22T09:55:35.373Z,35.50
2022-08-22T09:58:45.610Z,37.20
2022-08-22T10:01:23.578Z,36.20
2022-08-22T10:04:28.025Z,34.50
2022-08-22T10:07:11.626Z,34.40
2022-08-22T10:09:53.381Z,34.90
2022-08-22T10:12:36.203Z,34.40
2022-08-22T10:15:25.437Z,35.00
2022-08-22T10:18:05.249Z,35.60
2022-08-22T10:20:42.241Z,35.20
2022-08-22T10:23:41.629Z,35.60
2022-08-22T10:26:35.252Z,35.80
2022-08-22T10:29:26.138Z,35.80
2022-08-22T10:32:00.079Z,37.10
2022-08-22T10:34:40.009Z,36.20
2022-08-22T10:37:32.687Z,36.20
2022-08-22T10:40:07.170Z,37.10
2022-08-22T10:42:47.553Z,37.10
2022-08-22T10:45:36.759Z,37.00
2022-08-22T10:48:23.407Z,38.10
2022-08-22T10:51:09.851Z,38.40
2022-08-22T10:53:52.611Z,37.40
2022-08-22T10:56:34.979Z,37.30
2022-08-22T10:59:27.501Z,37.00
2022-08-22T11:02:21.863Z,37.80
2022-08-22T11:05:25.725Z,38.20
2022-08-22T11:08:19.489Z,37.90
2022-08-22T11:11:06.917Z,38.00
2022-08-22T11:13:51.671Z,37.70
2022-08-22T11:17:23.569Z,36.90
2022-08-22T11:20:25.266Z,36.50
2022-08-22T11:23:27.093Z,36.10
2022-08-22T11:26:13.689Z,37.10
2022-08-22T11:28:56.409Z,38.30
2022-08-22T11:31:31.754Z,37.50
2022-08-22T11:34:33.765Z,39.00
2022-08-22T11:37:43.579Z,39.00
2022-08-22T11:40:41.451Z,38.20
2022-08-22T11:43:39.644Z,37.90
2022-08-22T11:46:21.537Z,37.60
2022-08-22T11:48:59.037Z,36.30
2022-08-22T11:51:57.217Z,35.90
2022-08-22T11:54:36.541Z,35.70
2022-08-22T11:57:26.203Z,34.90
2022-08-22T12:00:23.568Z,35.10
2022-08-22T12:03:23.222Z,35.80
2022-08-22T12:06:02.495Z,37.20
2022-08-22T12:08:29.362Z,37.10
2022-08-22T12:11:03.577Z,36.80
2022-08-22T12:14:06.148Z,35.50
2022-08-22T12:17:09.647Z,35.00
2022-08-22T12:20:16.136Z,36.40
2022-08-22T12:23:05.426Z,35.60
2022-08-22T12:25:35.924Z,35.20
2022-08-22T12:28:23.756Z,35.50
2022-08-22T12:31:13.237Z,35.10
2022-08-22T12:34:01.152Z,35.90
2022-08-22T12:37:03.459Z,34.30
2022-08-22T12:40:11.466Z,34.20
2022-08-22T12:42:48.939Z,33.70
2022-08-22T12:45:35.811Z,33.80
2022-08-22T12:48:13.307Z,34.10
2022-08-22T12:50:57.218Z,34.30
2022-08-22T12:53:57.647Z,34.40
2022-08-22T12:56:31.253Z,33.60
2022-08-22T12:59:26.468Z,33.60
2022-08-22T13:01:56.748Z,33.30
2022-08-22T13:04:33.569Z,34.60
2022-08-22T13:07:18.498Z,34.30
2022-08-22T13:09:57.695Z,34.50
2022-08-22T13:12:31.848Z,33.60
2022-08-22T13:15:19.240Z,33.50
2022-08-22T13:17:47.967Z,33.50
2022-08-22T13:20:28.452Z,34.00
2022-08-22T13:22:56.220Z,34.80
2022-08-22T13:25:26.296Z,33.80
2022-08-22T13:28:00.343Z,34.30
2022-08-22T13:30:37.339Z,35.60
2022-08-22T13:33:13.633Z,35.10
2022-08-22T13:35:51.856Z,34.20
2022-08-22T13:38:38.343Z,34.00
2022-08-22T13:41:19.008Z,34.10
2022-08-22T13:44:06.631Z,33.50
2022-08-22T13:46:39.126Z,34.10
2022-08-22T13:49:32.731Z,34.20
2022-08-22T13:52:02.296Z,35.00
2022-08-22T13:54:47.023Z,34.90
2022-08-22T13:57:29.310Z,35.20
2022-08-22T14:00:28.645Z,34.60
2022-08-22T14:03:13.272Z,36.50
2022-08-22T14:05:44.620Z,34.90
2022-08-22T14:08:27.661Z,34.80
2022-08-22T14:11:01.926Z,33.10
2022-08-22T14:13:42.853Z,34.10
2022-08-22T14:16:27.098Z,33.30
2022-08-22T14:19:08.160Z,32.60
2022-08-22T14:21:47.163Z,32.30
2022-08-22T14:24:26.927Z,32.30
2022-08-22T14:26:59.707Z,33.20
2022-08-22T14:29:50.753Z,33.10
2022-08-22T14:32:25.222Z,32.40
2022-08-22T14:35:35.382Z,34.40
2022-08-22T14:38:17.081Z,35.70
2022-08-22T14:40:45.692Z,33.10
2022-08-22T14:43:22.534Z,31.80
2022-08-22T14:46:05.694Z,31.90
2022-08-22T14:48:47.364Z,32.10
2022-08-22T14:51:24.421Z,33.00
2022-08-22T14:53:52.321Z,33.40
2022-08-22T14:56:28.116Z,34.50
2022-08-22T14:59:04.151Z,33.80
2022-08-22T15:01:35.458Z,33.90
2022-08-22T15:04:09.638Z,33.90
2022-08-22T15:06:52.242Z,33.80
2022-08-22T15:09:34.017Z,32.10
2022-08-22T15:12:03.813Z,33.00
2022-08-22T15:14:52.970Z,32.40
2022-08-22T15:17:36.574Z,33.10
2022-08-22T15:20:27.701Z,33.70
2022-08-22T15:22:59.047Z,32.60
2022-08-22T15:25:34.315Z,33.20
2022-08-22T15:28:05.787Z,34.10
2022-08-22T15:30:38.809Z,34.50
2022-08-22T15:33:16.712Z,34.50
2022-08-22T15:35:46.348Z,34.00
2022-08-22T15:38:36.370Z,32.00
2022-08-22T15:41:22.085Z,33.00
2022-08-22T15:44:01.177Z,31.60
2022-08-22T15:46:34.716Z,32.10
2022-08-22T15:49:19.988Z,31.90
2022-08-22T15:52:14.922Z,33.20
2022-08-22T15:54:53.818Z,32.20
2022-08-22T15:57:41.359Z,31.80
2022-08-22T16:00:29.757Z,30.70
2022-08-22T16:02:59.748Z,32.20
2022-08-22T16:05:43.040Z,32.90
2022-08-22T16:08:14.334Z,33.20
2022-08-22T16:11:03.953Z,33.80
2022-08-22T16:13:30.843Z,34.70
2022-08-22T16:16:03.461Z,34.10
2022-08-22T16:18:33.401Z,34.10
2022-08-22T16:21:05.989Z,34.60
2022-08-22T16:23:51.223Z,34.80
2022-08-22T16:26:29.642Z,35.10
2022-08-22T16:28:59.566Z,34.50
2022-08-22T16:31:56.339Z,34.50
2022-08-22T16:34:26.144Z,33.90
2022-08-22T16:37:08.647Z,34.70
2022-08-22T16:39:53.915Z,33.20
2022-08-22T16:42:24.807Z,34.60
2022-08-22T16:45:05.505Z,33.40
2022-08-22T16:47:41.769Z,32.40
2022-08-22T16:50:26.955Z,31.70
2022-08-22T16:53:06.293Z,32.70
2022-08-22T16:55:35.981Z,32.60
2022-08-22T16:58:18.070Z,32.70
2022-08-22T17:01:07.265Z,32.90
2022-08-22T17:03:39.958Z,32.20
2022-08-22T17:06:32.490Z,31.10
2022-08-22T17:09:25.995Z,31.90
2022-08-22T17:12:32.112Z,32.30
2022-08-22T17:15:21.275Z,32.80
2022-08-22T17:18:22.043Z,32.10
2022-08-22T17:21:25.629Z,32.10
2022-08-22T17:24:03.179Z,32.20
2022-08-22T17:26:48.234Z,32.60
2022-08-22T17:29:24.455Z,32.00
2022-08-22T17:32:18.036Z,31.80
2022-08-22T17:34:47.688Z,31.60
2022-08-22T17:37:26.572Z,31.80
2022-08-22T17:40:21.213Z,32.60
2022-08-22T17:42:57.944Z,32.60
2022-08-22T17:45:33.995Z,33.30
2022-08-22T17:48:12.510Z,33.90
2022-08-22T17:50:58.283Z,34.40
2022-08-22T17:53:28.646Z,34.30
2022-08-22T17:56:27.657Z,34.90
2022-08-22T17:59:09.548Z,34.90
2022-08-22T18:01:43.586Z,35.10
2022-08-22T18:04:33.327Z,35.30
2022-08-22T18:07:15.778Z,36.00
2022-08-22T18:09:49.166Z,38.50
2022-08-22T18:12:34.373Z,39.10
2022-08-22T18:15:19.611Z,39.40
2022-08-22T18:18:05.455Z,39.70
2022-08-22T18:20:52.381Z,40.50
2022-08-22T18:23:42.519Z,40.00
2022-08-22T18:26:24.020Z,40.60
2022-08-22T18:28:51.568Z,40.90
2022-08-22T18:31:48.082Z,41.50
2022-08-22T18:34:29.767Z,42.30
2022-08-22T18:37:24.546Z,42.80
2022-08-22T18:39:59.958Z,42.60
2022-08-22T18:42:48.027Z,42.50
2022-08-22T18:45:43.867Z,42.70
2022-08-22T18:48:37.199Z,44.20
2022-08-22T18:51:23.881Z,44.80
2022-08-22T18:53:51.516Z,45.00
2022-08-22T18:56:54.600Z,45.00
2022-08-22T18:59:59.989Z,45.20
2022-08-22T19:02:39.419Z,45.70
2022-08-22T19:05:12.209Z,46.00
2022-08-22T19:07:57.176Z,46.00
2022-08-22T19:10:53.992Z,45.60
2022-08-22T19:13:42.123Z,46.10
2022-08-22T19:16:32.080Z,45.90
2022-08-22T19:19:17.409Z,46.40
2022-08-22T19:22:23.774Z,46.60
2022-08-22T19:25:12.452Z,46.90
2022-08-22T19:27:44.732Z,46.80
2022-08-22T19:30:41.609Z,46.80
2022-08-22T19:33:38.450Z,46.90
2022-08-22T19:36:29.838Z,46.70
2022-08-22T19:39:00.022Z,46.30
2022-08-22T19:41:50.782Z,46.60
2022-08-22T19:44:20.612Z,47.30
2022-08-22T19:47:19.882Z,47.40
2022-08-22T19:50:00.838Z,47.60
2022-08-22T19:52:40.068Z,48.00
2022-08-22T19:55:21.992Z,47.60
2022-08-22T19:57:57.370Z,47.90
2022-08-22T20:00:57.919Z,48.20
2022-08-22T20:03:53.947Z,48.20
2022-08-22T20:06:43.096Z,48.10
2022-08-22T20:09:14.354Z,48.40
2022-08-22T20:12:15.681Z,47.50
2022-08-22T20:14:45.635Z,47.90
2022-08-22T20:17:24.805Z,48.40
2022-08-22T20:23:05.937Z,48.10
2022-08-22T20:25:51.955Z,47.80
2022-08-22T20:28:45.063Z,48.20
2022-08-22T20:31:22.096Z,49.00
2022-08-22T20:33:55.291Z,49.40
2022-08-22T20:36:28.828Z,49.40
2022-08-22T20:39:07.416Z,48.90
2022-08-22T20:41:39.067Z,49.00
2022-08-22T20:44:20.774Z,49.60
2022-08-22T20:47:11.365Z,49.80
2022-08-22T20:49:48.469Z,49.10
2022-08-22T20:52:28.145Z,48.70
2022-08-22T20:55:31.488Z,48.80
2022-08-22T20:58:02.582Z,49.10
2022-08-22T21:00:51.100Z,49.10
2022-08-22T21:03:36.961Z,48.90
2022-08-22T21:06:28.391Z,49.60
2022-08-22T21:09:39.452Z,49.30
2022-08-22T21:12:09.402Z,49.90
2022-08-22T21:14:44.340Z,50.60
2022-08-22T21:17:34.198Z,50.90
2022-08-22T21:20:22.715Z,51.20
2022-08-22T21:22:50.438Z,50.80
2022-08-22T21:25:17.493Z,51.80
2022-08-22T21:27:49.315Z,51.10
2022-08-22T21:30:24.487Z,52.50
2022-08-22T21:32:55.938Z,51.40
2022-08-22T21:35:32.204Z,51.10
2022-08-22T21:38:01.152Z,52.40
2022-08-22T21:40:35.009Z,53.10
2022-08-22T21:43:06.319Z,52.20
2022-08-22T21:45:39.010Z,52.00
2022-08-22T21:48:56.517Z,52.80
2022-08-22T21:51:45.200Z,52.80
2022-08-22T21:54:29.847Z,51.90
2022-08-22T21:56:59.537Z,53.10
2022-08-22T21:59:50.527Z,52.50
2022-08-22T22:02:39.635Z,52.90
2022-08-22T22:05:17.617Z,53.10
2022-08-22T22:07:46.639Z,52.90
2022-08-22T22:10:16.655Z,51.40
2022-08-22T22:12:45.572Z,51.10
2022-08-22T22:15:15.811Z,51.50
2022-08-22T22:17:43.405Z,50.90
2022-08-22T22:20:11.499Z,51.50
2022-08-22T22:22:46.029Z,52.80
2022-08-22T22:25:41.034Z,53.80
2022-08-22T22:28:16.739Z,52.80
2022-08-22T22:30:45.287Z,52.90
2022-08-22T22:33:12.169Z,53.00
2022-08-22T22:35:40.638Z,52.90
2022-08-22T22:38:08.366Z,52.50
2022-08-22T22:40:35.451Z,52.80
2022-08-22T22:43:02.430Z,53.10
2022-08-22T22:45:29.877Z,52.80
2022-08-22T22:47:57.093Z,53.00
2022-08-22T22:50:24.308Z,52.90
2022-08-22T22:52:51.250Z,52.90
2022-08-22T22:55:24.220Z,52.90
2022-08-22T22:57:58.642Z,53.40
2022-08-22T23:00:31.433Z,53.40
2022-08-22T23:03:03.092Z,53.00
2022-08-22T23:05:31.242Z,53.10
2022-08-22T23:07:58.680Z,53.30
2022-08-22T23:10:27.134Z,53.40
2022-08-22T23:12:54.088Z,53.30
2022-08-22T23:15:21.275Z,53.40
2022-08-22T23:17:48.410Z,53.40
2022-08-22T23:20:15.356Z,53.70
2022-08-22T23:22:44.990Z,53.70
2022-08-22T23:25:11.926Z,53.60
2022-08-22T23:27:38.824Z,53.80
2022-08-22T23:30:08.605Z,53.50
2022-08-22T23:32:36.952Z,53.30
2022-08-22T23:35:04.932Z,53.80
2022-08-22T23:37:31.822Z,53.60
2022-08-22T23:39:58.721Z,53.30
2022-08-22T23:42:25.866Z,52.70
2022-08-22T23:44:52.739Z,52.40
2022-08-22T23:47:19.578Z,52.30
2022-08-22T23:49:46.606Z,53.70
2022-08-22T23:52:14.258Z,53.40
2022-08-22T23:54:41.512Z,53.40
2022-08-22T23:57:11.562Z,53.40
2022-08-22T23:59:46.203Z,53.40
